Погода Максымильянувна 2 недели

Лодзинское воеводство, Польша

24 мая-06 июня
  • 24мая
    Сегодня
    +12°
    +26°
    Практически безоблачно
    ВремяПогодаТемператураВлажностьДавлениеВетер, м/сВероятность осадков
    02:00Пасмурно, ливень+15°C95 %746 мм0.7 м/с45 %
    05:00Практически безоблачно+14°C99 %746 мм1.4 м/с26 %
    08:00Ясно и безоблачно+18°C86 %747 мм0.1 м/с4 %
    11:00Практически безоблачно+22°C64 %748 мм2.1 м/с2 %
    14:00Практически безоблачно+24°C57 %747 мм2.8 м/с5 %
    17:00Практически безоблачно+25°C41 %746 мм5.5 м/с14 %
    20:00Ясно и безоблачно+20°C71 %746 мм2.4 м/с15 %
    23:00Ясно и безоблачно+16°C86 %746 мм2.1 м/с2 %
  • 25мая
    Суббота
    +11°
    +26°
    Небольшая облачность
    ВремяПогодаТемператураВлажностьДавлениеВетер, м/сВероятность осадков
    02:00Ясно и безоблачно+15°C90 %747 мм2.4 м/с2 %
    05:00Практически безоблачно+13°C93 %747 мм2.5 м/с2 %
    08:00Практически безоблачно+18°C78 %747 мм2.3 м/с1 %
    11:00Небольшая облачность+22°C58 %748 мм3.3 м/с16 %
    14:00Небольшая облачность+23°C51 %747 мм2.7 м/с29 %
    17:00Небольшая облачность+25°C45 %746 мм3.1 м/с43 %
    20:00Облачно с прояснениями, небольшой дождь+19°C80 %747 мм1.2 м/с42 %
    23:00Ясно и безоблачно+14°C93 %747 мм1.9 м/с7 %
  • 26мая
    Воскресенье
    +11°
    +26°
    Практически безоблачно
    ВремяПогодаТемператураВлажностьДавлениеВетер, м/сВероятность осадков
    02:00Практически безоблачно+13°C94 %747 мм1.7 м/с2 %
    05:00Ясно и безоблачно+12°C98 %747 мм2.0 м/с2 %
    08:00Ясно и безоблачно+19°C75 %748 мм1.2 м/с2 %
    11:00Практически безоблачно+24°C51 %748 мм2.2 м/с7 %
    14:00Практически безоблачно+25°C39 %748 мм2.7 м/с26 %
    17:00Практически безоблачно+23°C48 %747 мм3.2 м/с41 %
    20:00Практически безоблачно+21°C60 %748 мм1.6 м/с21 %
    23:00Небольшая облачность+15°C77 %748 мм2.5 м/с5 %
  • 27мая
    Понедельник
    +11°
    +26°
    Ясно и безоблачно
    ВремяПогодаТемператураВлажностьДавлениеВетер, м/сВероятность осадков
    02:00Ясно и безоблачно+14°C85 %748 мм2.1 м/с2 %
    05:00Ясно и безоблачно+12°C88 %748 мм2.0 м/с2 %
    08:00Ясно и безоблачно+18°C64 %749 мм2.2 м/с2 %
    11:00Ясно и безоблачно+24°C38 %749 мм2.5 м/с4 %
    14:00Ясно и безоблачно+25°C26 %748 мм3.9 м/с10 %
    17:00Ясно и безоблачно+25°C25 %747 мм4.2 м/с8 %
    20:00Ясно и безоблачно+21°C42 %747 мм2.1 м/с6 %
    23:00Ясно и безоблачно+16°C46 %747 мм3.1 м/с2 %
  • 28мая
    Вторник
    +12°
    +25°
    Небольшая облачность
    ВремяПогодаТемператураВлажностьДавлениеВетер, м/сВероятность осадков
    02:00Ясно и безоблачно+14°C51 %747 мм2.3 м/с2 %
    05:00Ясно и безоблачно+12°C60 %747 мм2.9 м/с2 %
    08:00Ясно и безоблачно+18°C52 %747 мм2.9 м/с2 %
    11:00Небольшая облачность+25°C28 %747 мм4.9 м/с2 %
    14:00Небольшая облачность+25°C27 %747 мм5.2 м/с2 %
    17:00Пасмурно, сплошная облачность+25°C26 %745 мм4.0 м/с4 %
    20:00Ясно и безоблачно+21°C55 %745 мм2.2 м/с4 %
    23:00Ясно и безоблачно+17°C56 %745 мм1.7 м/с2 %
Мы используем cookies
Соглашаюсь